sensor_id;sensor_type;location;lat;lon;timestamp;pressure;altitude;pressure_sealevel;temperature
20289;BMP180;10303;51.960;8.372;2022-11-18T00:02:20;98595.00;;;11.60
20289;BMP180;10303;51.960;8.372;2022-11-18T00:04:46;98592.00;;;11.60
20289;BMP180;10303;51.960;8.372;2022-11-18T00:07:12;98592.00;;;11.60
20289;BMP180;10303;51.960;8.372;2022-11-18T00:09:39;98599.00;;;11.50
20289;BMP180;10303;51.960;8.372;2022-11-18T00:12:06;98606.00;;;11.50
20289;BMP180;10303;51.960;8.372;2022-11-18T00:14:51;98600.00;;;11.40
20289;BMP180;10303;51.960;8.372;2022-11-18T00:17:17;98599.00;;;11.40
20289;BMP180;10303;51.960;8.372;2022-11-18T00:19:43;98597.00;;;11.40
20289;BMP180;10303;51.960;8.372;2022-11-18T00:22:11;98589.00;;;11.30
20289;BMP180;10303;51.960;8.372;2022-11-18T00:24:38;98595.00;;;11.30
20289;BMP180;10303;51.960;8.372;2022-11-18T00:27:04;98609.00;;;11.30
20289;BMP180;10303;51.960;8.372;2022-11-18T00:29:30;98612.00;;;11.30
20289;BMP180;10303;51.960;8.372;2022-11-18T00:31:57;98602.00;;;11.30
20289;BMP180;10303;51.960;8.372;2022-11-18T00:34:25;98598.00;;;11.30
20289;BMP180;10303;51.960;8.372;2022-11-18T00:36:51;98595.00;;;11.20
20289;BMP180;10303;51.960;8.372;2022-11-18T00:39:18;98593.00;;;11.20
20289;BMP180;10303;51.960;8.372;2022-11-18T00:41:45;98602.00;;;11.20
20289;BMP180;10303;51.960;8.372;2022-11-18T00:44:31;98598.00;;;11.20
20289;BMP180;10303;51.960;8.372;2022-11-18T00:46:57;98612.00;;;11.10
20289;BMP180;10303;51.960;8.372;2022-11-18T00:49:23;98609.00;;;11.10
20289;BMP180;10303;51.960;8.372;2022-11-18T00:51:49;98615.00;;;11.10
20289;BMP180;10303;51.960;8.372;2022-11-18T00:54:15;98613.00;;;11.10
20289;BMP180;10303;51.960;8.372;2022-11-18T00:56:41;98622.00;;;11.10
20289;BMP180;10303;51.960;8.372;2022-11-18T00:59:07;98620.00;;;11.10
20289;BMP180;10303;51.960;8.372;2022-11-18T01:01:33;98634.00;;;11.10
20289;BMP180;10303;51.960;8.372;2022-11-18T01:03:59;98625.00;;;11.00
20289;BMP180;10303;51.960;8.372;2022-11-18T01:06:25;98632.00;;;11.00
20289;BMP180;10303;51.960;8.372;2022-11-18T01:08:51;98629.00;;;11.00
20289;BMP180;10303;51.960;8.372;2022-11-18T01:11:17;98642.00;;;11.00
20289;BMP180;10303;51.960;8.372;2022-11-18T01:14:02;98632.00;;;11.00
20289;BMP180;10303;51.960;8.372;2022-11-18T01:16:28;98634.00;;;11.00
20289;BMP180;10303;51.960;8.372;2022-11-18T01:18:55;98646.00;;;11.00
20289;BMP180;10303;51.960;8.372;2022-11-18T01:21:22;98644.00;;;10.90
20289;BMP180;10303;51.960;8.372;2022-11-18T01:23:48;98656.00;;;10.90
20289;BMP180;10303;51.960;8.372;2022-11-18T01:26:16;98656.00;;;10.90
20289;BMP180;10303;51.960;8.372;2022-11-18T01:28:43;98647.00;;;10.90
20289;BMP180;10303;51.960;8.372;2022-11-18T01:31:16;98664.00;;;10.90
20289;BMP180;10303;51.960;8.372;2022-11-18T01:33:44;98652.00;;;10.90
20289;BMP180;10303;51.960;8.372;2022-11-18T01:36:16;98654.00;;;10.90
20289;BMP180;10303;51.960;8.372;2022-11-18T01:38:42;98660.00;;;10.90
20289;BMP180;10303;51.960;8.372;2022-11-18T01:41:09;98661.00;;;10.90
20289;BMP180;10303;51.960;8.372;2022-11-18T01:44:05;98659.00;;;10.80
20289;BMP180;10303;51.960;8.372;2022-11-18T01:46:33;98675.00;;;10.80
20289;BMP180;10303;51.960;8.372;2022-11-18T01:49:07;98671.00;;;10.80
20289;BMP180;10303;51.960;8.372;2022-11-18T01:51:46;98665.00;;;10.80
20289;BMP180;10303;51.960;8.372;2022-11-18T01:54:24;98667.00;;;10.80
20289;BMP180;10303;51.960;8.372;2022-11-18T01:56:56;98664.00;;;10.80
20289;BMP180;10303;51.960;8.372;2022-11-18T01:59:29;98674.00;;;10.70
20289;BMP180;10303;51.960;8.372;2022-11-18T02:01:56;98666.00;;;10.80
20289;BMP180;10303;51.960;8.372;2022-11-18T02:04:24;98667.00;;;10.70
20289;BMP180;10303;51.960;8.372;2022-11-18T02:06:53;98673.00;;;10.70
20289;BMP180;10303;51.960;8.372;2022-11-18T02:09:20;98669.00;;;10.70
20289;BMP180;10303;51.960;8.372;2022-11-18T02:11:47;98671.00;;;10.60
20289;BMP180;10303;51.960;8.372;2022-11-18T02:14:40;98667.00;;;10.60
20289;BMP180;10303;51.960;8.372;2022-11-18T02:31:13;98684.00;;;10.40
20289;BMP180;10303;51.960;8.372;2022-11-18T02:33:50;98685.00;;;10.40
20289;BMP180;10303;51.960;8.372;2022-11-18T02:36:26;98698.00;;;10.40
20289;BMP180;10303;51.960;8.372;2022-11-18T02:39:02;98700.00;;;10.40
20289;BMP180;10303;51.960;8.372;2022-11-18T02:41:33;98695.00;;;10.40
20289;BMP180;10303;51.960;8.372;2022-11-18T02:44:08;98702.00;;;10.40
20289;BMP180;10303;51.960;8.372;2022-11-18T02:46:39;98689.00;;;10.40
20289;BMP180;10303;51.960;8.372;2022-11-18T02:49:15;98693.00;;;10.40
20289;BMP180;10303;51.960;8.372;2022-11-18T02:51:44;98702.00;;;10.40
20289;BMP180;10303;51.960;8.372;2022-11-18T02:54:12;98692.00;;;10.30
20289;BMP180;10303;51.960;8.372;2022-11-18T02:56:41;98706.00;;;10.30
20289;BMP180;10303;51.960;8.372;2022-11-18T02:59:08;98710.00;;;10.30
20289;BMP180;10303;51.960;8.372;2022-11-18T03:01:35;98714.00;;;10.30
20289;BMP180;10303;51.960;8.372;2022-11-18T03:04:02;98701.00;;;10.30
20289;BMP180;10303;51.960;8.372;2022-11-18T03:06:35;98718.00;;;10.20
20289;BMP180;10303;51.960;8.372;2022-11-18T03:09:37;98699.00;;;10.10
20289;BMP180;10303;51.960;8.372;2022-11-18T03:12:48;98713.00;;;10.10
20289;BMP180;10303;51.960;8.372;2022-11-18T03:15:27;98708.00;;;10.10
20289;BMP180;10303;51.960;8.372;2022-11-18T03:18:19;98701.00;;;10.00
20289;BMP180;10303;51.960;8.372;2022-11-18T03:20:58;98718.00;;;10.00
20289;BMP180;10303;51.960;8.372;2022-11-18T03:23:43;98724.00;;;10.00
20289;BMP180;10303;51.960;8.372;2022-11-18T03:26:21;98723.00;;;9.90
20289;BMP180;10303;51.960;8.372;2022-11-18T03:31:42;98729.00;;;9.90
20289;BMP180;10303;51.960;8.372;2022-11-18T03:34:26;98743.00;;;9.90
20289;BMP180;10303;51.960;8.372;2022-11-18T03:36:58;98750.00;;;9.90
20289;BMP180;10303;51.960;8.372;2022-11-18T03:39:29;98747.00;;;9.90
20289;BMP180;10303;51.960;8.372;2022-11-18T03:42:11;98753.00;;;9.80
20289;BMP180;10303;51.960;8.372;2022-11-18T03:44:46;98742.00;;;9.80
20289;BMP180;10303;51.960;8.372;2022-11-18T03:47:32;98757.00;;;9.80
20289;BMP180;10303;51.960;8.372;2022-11-18T03:50:10;98755.00;;;9.80
20289;BMP180;10303;51.960;8.372;2022-11-18T03:52:39;98761.00;;;9.80
20289;BMP180;10303;51.960;8.372;2022-11-18T03:55:13;98756.00;;;9.70
20289;BMP180;10303;51.960;8.372;2022-11-18T04:00:15;98764.00;;;9.70
20289;BMP180;10303;51.960;8.372;2022-11-18T04:02:45;98768.00;;;9.70
20289;BMP180;10303;51.960;8.372;2022-11-18T04:05:14;98767.00;;;9.70
20289;BMP180;10303;51.960;8.372;2022-11-18T04:13:11;98764.00;;;9.70
20289;BMP180;10303;51.960;8.372;2022-11-18T04:15:41;98772.00;;;9.70
20289;BMP180;10303;51.960;8.372;2022-11-18T04:18:08;98778.00;;;9.70
20289;BMP180;10303;51.960;8.372;2022-11-18T04:20:35;98768.00;;;9.60
20289;BMP180;10303;51.960;8.372;2022-11-18T04:23:03;98781.00;;;9.60
20289;BMP180;10303;51.960;8.372;2022-11-18T04:25:29;98776.00;;;9.60
20289;BMP180;10303;51.960;8.372;2022-11-18T04:27:55;98778.00;;;9.60
20289;BMP180;10303;51.960;8.372;2022-11-18T04:30:21;98785.00;;;9.60
20289;BMP180;10303;51.960;8.372;2022-11-18T04:32:48;98780.00;;;9.50
20289;BMP180;10303;51.960;8.372;2022-11-18T04:35:14;98775.00;;;9.50
20289;BMP180;10303;51.960;8.372;2022-11-18T04:37:40;98773.00;;;9.50
20289;BMP180;10303;51.960;8.372;2022-11-18T04:40:08;98801.00;;;9.50
20289;BMP180;10303;51.960;8.372;2022-11-18T04:42:34;98797.00;;;9.50
20289;BMP180;10303;51.960;8.372;2022-11-18T04:45:00;98797.00;;;9.50
20289;BMP180;10303;51.960;8.372;2022-11-18T04:47:26;98792.00;;;9.50
20289;BMP180;10303;51.960;8.372;2022-11-18T04:49:52;98792.00;;;9.50
20289;BMP180;10303;51.960;8.372;2022-11-18T04:52:18;98802.00;;;9.40
20289;BMP180;10303;51.960;8.372;2022-11-18T04:54:44;98796.00;;;9.40
20289;BMP180;10303;51.960;8.372;2022-11-18T04:57:11;98799.00;;;9.40
20289;BMP180;10303;51.960;8.372;2022-11-18T04:59:38;98801.00;;;9.40
20289;BMP180;10303;51.960;8.372;2022-11-18T05:02:04;98799.00;;;9.40
20289;BMP180;10303;51.960;8.372;2022-11-18T05:04:33;98806.00;;;9.40
20289;BMP180;10303;51.960;8.372;2022-11-18T05:07:01;98816.00;;;9.40
20289;BMP180;10303;51.960;8.372;2022-11-18T05:09:28;98813.00;;;9.40
20289;BMP180;10303;51.960;8.372;2022-11-18T05:11:54;98809.00;;;9.40
20289;BMP180;10303;51.960;8.372;2022-11-18T05:14:52;98821.00;;;9.30
20289;BMP180;10303;51.960;8.372;2022-11-18T05:17:18;98823.00;;;9.30
20289;BMP180;10303;51.960;8.372;2022-11-18T05:19:44;98818.00;;;9.30
20289;BMP180;10303;51.960;8.372;2022-11-18T05:22:10;98823.00;;;9.30
20289;BMP180;10303;51.960;8.372;2022-11-18T05:24:36;98809.00;;;9.30
20289;BMP180;10303;51.960;8.372;2022-11-18T05:27:02;98819.00;;;9.30
20289;BMP180;10303;51.960;8.372;2022-11-18T05:29:28;98824.00;;;9.30
20289;BMP180;10303;51.960;8.372;2022-11-18T05:31:54;98826.00;;;9.30
20289;BMP180;10303;51.960;8.372;2022-11-18T05:34:21;98836.00;;;9.40
20289;BMP180;10303;51.960;8.372;2022-11-18T05:36:47;98833.00;;;9.30
20289;BMP180;10303;51.960;8.372;2022-11-18T05:39:14;98831.00;;;9.30
20289;BMP180;10303;51.960;8.372;2022-11-18T05:41:40;98839.00;;;9.30
20289;BMP180;10303;51.960;8.372;2022-11-18T05:44:24;98847.00;;;9.30
20289;BMP180;10303;51.960;8.372;2022-11-18T05:46:50;98839.00;;;9.30
20289;BMP180;10303;51.960;8.372;2022-11-18T05:49:17;98838.00;;;9.20
20289;BMP180;10303;51.960;8.372;2022-11-18T05:51:43;98833.00;;;9.30
20289;BMP180;10303;51.960;8.372;2022-11-18T05:54:10;98845.00;;;9.20
20289;BMP180;10303;51.960;8.372;2022-11-18T05:56:42;98846.00;;;9.20
20289;BMP180;10303;51.960;8.372;2022-11-18T05:59:12;98852.00;;;9.20
20289;BMP180;10303;51.960;8.372;2022-11-18T06:01:55;98849.00;;;9.20
20289;BMP180;10303;51.960;8.372;2022-11-18T06:04:45;98861.00;;;9.20
20289;BMP180;10303;51.960;8.372;2022-11-18T06:07:37;98870.00;;;9.20
20289;BMP180;10303;51.960;8.372;2022-11-18T06:10:05;98878.00;;;9.20
20289;BMP180;10303;51.960;8.372;2022-11-18T06:12:40;98886.00;;;9.20
20289;BMP180;10303;51.960;8.372;2022-11-18T06:15:12;98881.00;;;9.20
20289;BMP180;10303;51.960;8.372;2022-11-18T06:17:55;98883.00;;;9.10
20289;BMP180;10303;51.960;8.372;2022-11-18T06:20:22;98878.00;;;9.10
20289;BMP180;10303;51.960;8.372;2022-11-18T06:22:53;98893.00;;;9.10
20289;BMP180;10303;51.960;8.372;2022-11-18T06:25:21;98904.00;;;9.10
20289;BMP180;10303;51.960;8.372;2022-11-18T06:27:49;98912.00;;;9.10
20289;BMP180;10303;51.960;8.372;2022-11-18T06:30:16;98909.00;;;9.10
20289;BMP180;10303;51.960;8.372;2022-11-18T06:32:42;98910.00;;;9.10
20289;BMP180;10303;51.960;8.372;2022-11-18T06:35:09;98916.00;;;9.10
20289;BMP180;10303;51.960;8.372;2022-11-18T06:37:35;98920.00;;;9.20
20289;BMP180;10303;51.960;8.372;2022-11-18T06:40:01;98923.00;;;9.20
20289;BMP180;10303;51.960;8.372;2022-11-18T06:42:28;98931.00;;;9.20
20289;BMP180;10303;51.960;8.372;2022-11-18T06:45:13;98934.00;;;9.30
20289;BMP180;10303;51.960;8.372;2022-11-18T06:47:39;98920.00;;;9.30
20289;BMP180;10303;51.960;8.372;2022-11-18T06:50:05;98934.00;;;9.40
20289;BMP180;10303;51.960;8.372;2022-11-18T06:52:31;98930.00;;;9.40
20289;BMP180;10303;51.960;8.372;2022-11-18T06:54:58;98934.00;;;9.50
20289;BMP180;10303;51.960;8.372;2022-11-18T06:57:24;98929.00;;;9.60
20289;BMP180;10303;51.960;8.372;2022-11-18T06:59:50;98936.00;;;9.60
20289;BMP180;10303;51.960;8.372;2022-11-18T07:02:16;98942.00;;;9.70
20289;BMP180;10303;51.960;8.372;2022-11-18T07:04:45;98949.00;;;9.70
20289;BMP180;10303;51.960;8.372;2022-11-18T07:07:11;98949.00;;;9.80
20289;BMP180;10303;51.960;8.372;2022-11-18T07:09:37;98945.00;;;9.80
20289;BMP180;10303;51.960;8.372;2022-11-18T07:12:04;98955.00;;;9.90
20289;BMP180;10303;51.960;8.372;2022-11-18T07:14:30;98952.00;;;9.90
20289;BMP180;10303;51.960;8.372;2022-11-18T07:16:57;98954.00;;;9.90
20289;BMP180;10303;51.960;8.372;2022-11-18T07:19:23;98964.00;;;10.00
20289;BMP180;10303;51.960;8.372;2022-11-18T07:21:49;98967.00;;;10.00
20289;BMP180;10303;51.960;8.372;2022-11-18T07:24:15;98959.00;;;10.00
20289;BMP180;10303;51.960;8.372;2022-11-18T07:26:42;98972.00;;;10.10
20289;BMP180;10303;51.960;8.372;2022-11-18T07:29:09;98962.00;;;10.10
20289;BMP180;10303;51.960;8.372;2022-11-18T07:31:36;98972.00;;;10.10
20289;BMP180;10303;51.960;8.372;2022-11-18T07:34:03;98975.00;;;10.10
20289;BMP180;10303;51.960;8.372;2022-11-18T07:36:29;98977.00;;;10.20
20289;BMP180;10303;51.960;8.372;2022-11-18T07:38:58;98990.00;;;10.20
20289;BMP180;10303;51.960;8.372;2022-11-18T07:41:27;98988.00;;;10.20
20289;BMP180;10303;51.960;8.372;2022-11-18T07:43:56;98993.00;;;10.20
20289;BMP180;10303;51.960;8.372;2022-11-18T07:46:36;99005.00;;;10.20
20289;BMP180;10303;51.960;8.372;2022-11-18T07:49:05;98978.00;;;10.30
20289;BMP180;10303;51.960;8.372;2022-11-18T07:51:35;99018.00;;;10.30
20289;BMP180;10303;51.960;8.372;2022-11-18T07:54:10;99015.00;;;10.30
20289;BMP180;10303;51.960;8.372;2022-11-18T07:56:37;99021.00;;;10.30
20289;BMP180;10303;51.960;8.372;2022-11-18T07:59:04;99015.00;;;10.40
20289;BMP180;10303;51.960;8.372;2022-11-18T08:01:30;99011.00;;;10.40
20289;BMP180;10303;51.960;8.372;2022-11-18T08:04:07;99019.00;;;10.50
20289;BMP180;10303;51.960;8.372;2022-11-18T08:06:34;99026.00;;;10.50
20289;BMP180;10303;51.960;8.372;2022-11-18T08:09:01;99026.00;;;10.50
20289;BMP180;10303;51.960;8.372;2022-11-18T08:11:27;99029.00;;;10.60
20289;BMP180;10303;51.960;8.372;2022-11-18T08:13:53;99043.00;;;10.70
20289;BMP180;10303;51.960;8.372;2022-11-18T08:16:23;99073.00;;;10.70
20289;BMP180;10303;51.960;8.372;2022-11-18T08:18:50;99069.00;;;10.80
20289;BMP180;10303;51.960;8.372;2022-11-18T08:21:19;99073.00;;;10.80
20289;BMP180;10303;51.960;8.372;2022-11-18T08:23:54;99074.00;;;10.80
20289;BMP180;10303;51.960;8.372;2022-11-18T08:26:22;99075.00;;;10.80
20289;BMP180;10303;51.960;8.372;2022-11-18T08:28:48;99067.00;;;10.80
20289;BMP180;10303;51.960;8.372;2022-11-18T08:31:23;99069.00;;;10.80
20289;BMP180;10303;51.960;8.372;2022-11-18T08:34:01;99084.00;;;10.90
20289;BMP180;10303;51.960;8.372;2022-11-18T08:36:32;99074.00;;;10.90
20289;BMP180;10303;51.960;8.372;2022-11-18T08:39:02;99065.00;;;10.90
20289;BMP180;10303;51.960;8.372;2022-11-18T08:41:40;99074.00;;;11.00
20289;BMP180;10303;51.960;8.372;2022-11-18T08:44:12;99063.00;;;11.00
20289;BMP180;10303;51.960;8.372;2022-11-18T08:46:39;99075.00;;;11.00
20289;BMP180;10303;51.960;8.372;2022-11-18T08:49:05;99071.00;;;11.10
20289;BMP180;10303;51.960;8.372;2022-11-18T08:51:31;99074.00;;;11.10
20289;BMP180;10303;51.960;8.372;2022-11-18T08:53:57;99081.00;;;11.20
20289;BMP180;10303;51.960;8.372;2022-11-18T08:56:24;99087.00;;;11.20
20289;BMP180;10303;51.960;8.372;2022-11-18T08:58:51;99081.00;;;11.20
20289;BMP180;10303;51.960;8.372;2022-11-18T09:01:17;99078.00;;;11.20
20289;BMP180;10303;51.960;8.372;2022-11-18T09:03:47;99082.00;;;11.20
20289;BMP180;10303;51.960;8.372;2022-11-18T09:06:16;99094.00;;;11.30
20289;BMP180;10303;51.960;8.372;2022-11-18T09:08:44;99091.00;;;11.30
20289;BMP180;10303;51.960;8.372;2022-11-18T09:11:17;99095.00;;;11.30
20289;BMP180;10303;51.960;8.372;2022-11-18T09:13:44;99095.00;;;11.30
20289;BMP180;10303;51.960;8.372;2022-11-18T09:16:10;99087.00;;;11.40
20289;BMP180;10303;51.960;8.372;2022-11-18T09:18:36;99102.00;;;11.40
20289;BMP180;10303;51.960;8.372;2022-11-18T09:21:07;99101.00;;;11.40
20289;BMP180;10303;51.960;8.372;2022-11-18T09:23:36;99104.00;;;11.40
20289;BMP180;10303;51.960;8.372;2022-11-18T09:26:06;99109.00;;;11.40
20289;BMP180;10303;51.960;8.372;2022-11-18T09:28:33;99096.00;;;11.50
20289;BMP180;10303;51.960;8.372;2022-11-18T09:31:07;99120.00;;;11.50
20289;BMP180;10303;51.960;8.372;2022-11-18T09:33:35;99107.00;;;11.50
20289;BMP180;10303;51.960;8.372;2022-11-18T09:36:01;99110.00;;;11.50
20289;BMP180;10303;51.960;8.372;2022-11-18T09:38:31;99114.00;;;11.50
20289;BMP180;10303;51.960;8.372;2022-11-18T09:49:42;99144.00;;;11.60
20289;BMP180;10303;51.960;8.372;2022-11-18T09:52:35;99146.00;;;11.60
20289;BMP180;10303;51.960;8.372;2022-11-18T09:55:11;99153.00;;;11.70
20289;BMP180;10303;51.960;8.372;2022-11-18T09:57:43;99153.00;;;11.70
20289;BMP180;10303;51.960;8.372;2022-11-18T10:00:24;99152.00;;;11.70
20289;BMP180;10303;51.960;8.372;2022-11-18T10:03:10;99157.00;;;11.70
20289;BMP180;10303;51.960;8.372;2022-11-18T10:05:51;99157.00;;;11.70
20289;BMP180;10303;51.960;8.372;2022-11-18T10:08:32;99157.00;;;11.80
20289;BMP180;10303;51.960;8.372;2022-11-18T10:14:18;99156.00;;;11.80
20289;BMP180;10303;51.960;8.372;2022-11-18T10:25:16;99168.00;;;11.90
20289;BMP180;10303;51.960;8.372;2022-11-18T10:27:45;99170.00;;;12.00
20289;BMP180;10303;51.960;8.372;2022-11-18T10:30:15;99173.00;;;12.00
20289;BMP180;10303;51.960;8.372;2022-11-18T10:33:00;99174.00;;;12.00
20289;BMP180;10303;51.960;8.372;2022-11-18T10:35:36;99182.00;;;12.00
20289;BMP180;10303;51.960;8.372;2022-11-18T10:38:19;99188.00;;;12.00
20289;BMP180;10303;51.960;8.372;2022-11-18T10:43:52;99195.00;;;12.10
20289;BMP180;10303;51.960;8.372;2022-11-18T10:51:36;99193.00;;;12.10
20289;BMP180;10303;51.960;8.372;2022-11-18T10:54:13;99193.00;;;12.00
20289;BMP180;10303;51.960;8.372;2022-11-18T10:57:22;99203.00;;;12.00
20289;BMP180;10303;51.960;8.372;2022-11-18T11:02:25;99207.00;;;12.00
20289;BMP180;10303;51.960;8.372;2022-11-18T11:04:58;99209.00;;;12.00
20289;BMP180;10303;51.960;8.372;2022-11-18T11:07:32;99193.00;;;11.90
20289;BMP180;10303;51.960;8.372;2022-11-18T11:12:45;99208.00;;;11.90
20289;BMP180;10303;51.960;8.372;2022-11-18T11:15:26;99214.00;;;11.90
20289;BMP180;10303;51.960;8.372;2022-11-18T11:18:30;99213.00;;;11.90
20289;BMP180;10303;51.960;8.372;2022-11-18T11:21:21;99220.00;;;11.90
20289;BMP180;10303;51.960;8.372;2022-11-18T11:23:47;99213.00;;;12.00
20289;BMP180;10303;51.960;8.372;2022-11-18T11:29:27;99224.00;;;12.00
20289;BMP180;10303;51.960;8.372;2022-11-18T11:37:58;99219.00;;;11.90
20289;BMP180;10303;51.960;8.372;2022-11-18T11:40:38;99226.00;;;11.90
20289;BMP180;10303;51.960;8.372;2022-11-18T11:46:41;99231.00;;;11.90
20289;BMP180;10303;51.960;8.372;2022-11-18T11:49:19;99230.00;;;11.90
20289;BMP180;10303;51.960;8.372;2022-11-18T11:52:08;99231.00;;;11.80
20289;BMP180;10303;51.960;8.372;2022-11-18T11:55:11;99230.00;;;11.80
20289;BMP180;10303;51.960;8.372;2022-11-18T12:00:26;99232.00;;;11.90
20289;BMP180;10303;51.960;8.372;2022-11-18T12:03:35;99237.00;;;11.90
20289;BMP180;10303;51.960;8.372;2022-11-18T12:06:09;99245.00;;;11.90
20289;BMP180;10303;51.960;8.372;2022-11-18T12:08:42;99233.00;;;11.90
20289;BMP180;10303;51.960;8.372;2022-11-18T12:11:30;99252.00;;;11.90
20289;BMP180;10303;51.960;8.372;2022-11-18T12:14:31;99258.00;;;11.80
20289;BMP180;10303;51.960;8.372;2022-11-18T12:17:36;99251.00;;;11.80
20289;BMP180;10303;51.960;8.372;2022-11-18T12:19:59;99255.00;;;11.80
20289;BMP180;10303;51.960;8.372;2022-11-18T12:23:17;99252.00;;;11.70
20289;BMP180;10303;51.960;8.372;2022-11-18T12:25:58;99255.00;;;11.70
20289;BMP180;10303;51.960;8.372;2022-11-18T12:34:02;99266.00;;;11.50
20289;BMP180;10303;51.960;8.372;2022-11-18T12:36:39;99259.00;;;11.40
20289;BMP180;10303;51.960;8.372;2022-11-18T12:42:03;99256.00;;;11.30
20289;BMP180;10303;51.960;8.372;2022-11-18T12:44:51;99266.00;;;11.30
20289;BMP180;10303;51.960;8.372;2022-11-18T12:50:11;99278.00;;;11.20
20289;BMP180;10303;51.960;8.372;2022-11-18T12:55:20;99281.00;;;11.00
20289;BMP180;10303;51.960;8.372;2022-11-18T12:57:47;99277.00;;;11.00
20289;BMP180;10303;51.960;8.372;2022-11-18T13:02:58;99264.00;;;10.90
20289;BMP180;10303;51.960;8.372;2022-11-18T13:05:32;99277.00;;;10.90
20289;BMP180;10303;51.960;8.372;2022-11-18T13:08:09;99267.00;;;10.80
20289;BMP180;10303;51.960;8.372;2022-11-18T13:10:47;99271.00;;;10.80
20289;BMP180;10303;51.960;8.372;2022-11-18T13:13:32;99269.00;;;10.70
20289;BMP180;10303;51.960;8.372;2022-11-18T13:16:21;99261.00;;;10.60
20289;BMP180;10303;51.960;8.372;2022-11-18T13:19:08;99286.00;;;10.60
20289;BMP180;10303;51.960;8.372;2022-11-18T13:21:34;99276.00;;;10.60
20289;BMP180;10303;51.960;8.372;2022-11-18T13:24:22;99277.00;;;10.50
20289;BMP180;10303;51.960;8.372;2022-11-18T13:26:55;99281.00;;;10.50
20289;BMP180;10303;51.960;8.372;2022-11-18T13:32:19;99297.00;;;10.40
20289;BMP180;10303;51.960;8.372;2022-11-18T13:34:53;99300.00;;;10.40
20289;BMP180;10303;51.960;8.372;2022-11-18T13:37:29;99297.00;;;10.40
20289;BMP180;10303;51.960;8.372;2022-11-18T13:39:56;99293.00;;;10.30
20289;BMP180;10303;51.960;8.372;2022-11-18T13:42:28;99298.00;;;10.30
20289;BMP180;10303;51.960;8.372;2022-11-18T13:44:59;99298.00;;;10.30
20289;BMP180;10303;51.960;8.372;2022-11-18T13:50:32;99291.00;;;10.20
20289;BMP180;10303;51.960;8.372;2022-11-18T13:53:08;99298.00;;;10.10
20289;BMP180;10303;51.960;8.372;2022-11-18T13:55:56;99310.00;;;10.10
20289;BMP180;10303;51.960;8.372;2022-11-18T13:58:43;99319.00;;;10.00
20289;BMP180;10303;51.960;8.372;2022-11-18T14:01:23;99329.00;;;10.00
20289;BMP180;10303;51.960;8.372;2022-11-18T14:03:56;99316.00;;;10.00
20289;BMP180;10303;51.960;8.372;2022-11-18T14:06:32;99324.00;;;10.00
20289;BMP180;10303;51.960;8.372;2022-11-18T14:11:39;99326.00;;;9.90
20289;BMP180;10303;51.960;8.372;2022-11-18T14:14:07;99323.00;;;9.90
20289;BMP180;10303;51.960;8.372;2022-11-18T14:16:38;99339.00;;;9.90
20289;BMP180;10303;51.960;8.372;2022-11-18T14:19:05;99344.00;;;9.90
20289;BMP180;10303;51.960;8.372;2022-11-18T14:21:35;99332.00;;;9.80
20289;BMP180;10303;51.960;8.372;2022-11-18T14:24:03;99353.00;;;9.80
20289;BMP180;10303;51.960;8.372;2022-11-18T14:26:31;99351.00;;;9.80
20289;BMP180;10303;51.960;8.372;2022-11-18T14:29:02;99347.00;;;9.80
20289;BMP180;10303;51.960;8.372;2022-11-18T14:31:32;99352.00;;;9.80
20289;BMP180;10303;51.960;8.372;2022-11-18T14:36:38;99351.00;;;9.70
20289;BMP180;10303;51.960;8.372;2022-11-18T14:39:26;99356.00;;;9.60
20289;BMP180;10303;51.960;8.372;2022-11-18T14:41:53;99363.00;;;9.60
20289;BMP180;10303;51.960;8.372;2022-11-18T14:44:23;99362.00;;;9.60
20289;BMP180;10303;51.960;8.372;2022-11-18T14:47:02;99355.00;;;9.50
20289;BMP180;10303;51.960;8.372;2022-11-18T14:49:30;99361.00;;;9.50
20289;BMP180;10303;51.960;8.372;2022-11-18T14:51:58;99354.00;;;9.50
20289;BMP180;10303;51.960;8.372;2022-11-18T14:54:27;99378.00;;;9.50
20289;BMP180;10303;51.960;8.372;2022-11-18T14:57:00;99379.00;;;9.40
20289;BMP180;10303;51.960;8.372;2022-11-18T14:59:27;99374.00;;;9.40
20289;BMP180;10303;51.960;8.372;2022-11-18T15:01:53;99378.00;;;9.40
20289;BMP180;10303;51.960;8.372;2022-11-18T15:04:21;99379.00;;;9.40
20289;BMP180;10303;51.960;8.372;2022-11-18T15:06:47;99383.00;;;9.40
20289;BMP180;10303;51.960;8.372;2022-11-18T15:09:13;99381.00;;;9.40
20289;BMP180;10303;51.960;8.372;2022-11-18T15:11:39;99383.00;;;9.30
20289;BMP180;10303;51.960;8.372;2022-11-18T15:14:05;99379.00;;;9.30
20289;BMP180;10303;51.960;8.372;2022-11-18T15:16:33;99388.00;;;9.20
20289;BMP180;10303;51.960;8.372;2022-11-18T15:19:03;99402.00;;;9.20
20289;BMP180;10303;51.960;8.372;2022-11-18T15:21:29;99399.00;;;9.10
20289;BMP180;10303;51.960;8.372;2022-11-18T15:23:55;99416.00;;;9.10
20289;BMP180;10303;51.960;8.372;2022-11-18T15:26:34;99415.00;;;9.00
20289;BMP180;10303;51.960;8.372;2022-11-18T15:29:02;99393.00;;;9.00
20289;BMP180;10303;51.960;8.372;2022-11-18T15:31:28;99412.00;;;9.00
20289;BMP180;10303;51.960;8.372;2022-11-18T15:33:55;99421.00;;;8.90
20289;BMP180;10303;51.960;8.372;2022-11-18T15:36:25;99430.00;;;8.90
20289;BMP180;10303;51.960;8.372;2022-11-18T15:38:53;99426.00;;;8.90
20289;BMP180;10303;51.960;8.372;2022-11-18T15:41:23;99435.00;;;8.90
20289;BMP180;10303;51.960;8.372;2022-11-18T15:43:50;99431.00;;;8.90
20289;BMP180;10303;51.960;8.372;2022-11-18T15:46:19;99439.00;;;8.90
20289;BMP180;10303;51.960;8.372;2022-11-18T15:48:47;99431.00;;;8.80
20289;BMP180;10303;51.960;8.372;2022-11-18T15:51:15;99440.00;;;8.80
20289;BMP180;10303;51.960;8.372;2022-11-18T15:53:41;99432.00;;;8.70
20289;BMP180;10303;51.960;8.372;2022-11-18T15:59:03;99450.00;;;8.60
20289;BMP180;10303;51.960;8.372;2022-11-18T16:01:36;99449.00;;;8.60
20289;BMP180;10303;51.960;8.372;2022-11-18T16:04:04;99448.00;;;8.60
20289;BMP180;10303;51.960;8.372;2022-11-18T16:06:31;99450.00;;;8.50
20289;BMP180;10303;51.960;8.372;2022-11-18T16:08:59;99451.00;;;8.50
20289;BMP180;10303;51.960;8.372;2022-11-18T16:11:25;99453.00;;;8.50
20289;BMP180;10303;51.960;8.372;2022-11-18T16:14:12;99447.00;;;8.40
20289;BMP180;10303;51.960;8.372;2022-11-18T16:16:42;99466.00;;;8.40
20289;BMP180;10303;51.960;8.372;2022-11-18T16:19:16;99468.00;;;8.40
20289;BMP180;10303;51.960;8.372;2022-11-18T16:21:45;99460.00;;;8.30
20289;BMP180;10303;51.960;8.372;2022-11-18T16:24:16;99468.00;;;8.30
20289;BMP180;10303;51.960;8.372;2022-11-18T16:26:45;99454.00;;;8.30